National Geographic Sea Bird — WAK8004 — position and weather

sailwx.info

Track history (hours):
 
Tides and Currents Weather Stations Pressure Air Temp Water Temp Dewpoint Dewpoint Depression Visibility Wind Speed Wind Dir Waves Ship Positions

National Geographic Sea Bird

Owner: Lindblad Expeditions, Inc., SEATTLE, WA. More information available from US FCC via Universal Licensing System and Coast Guard Vessel Documentation Center.

Last reported at 2018-Jun-12 09:45 UTC. Time now 2018-Jun-18 19:12 UTC.
Position N 58°12' W 135°25'.

Length 50 m; draft 2.7 m.

Type: Passenger vessel. MMSI: 366892350.

Date/timePositionNaut miles runAvg speedWind from/ knotsBaromVisibWave heightAir tempDewpointWater temp
2018-Jun-12 09:45N 58°12' W 135°25'3 9.9
2018-Jun-12 09:27N 58°13' W 135°30'4 9.7
2018-Jun-12 09:00N 58°15' W 135°38'5 9.5
2018-Jun-12 08:30N 58°17' W 135°46'5 9.5
2018-Jun-12 08:00N 58°19' W 135°54'4 8.8
2018-Jun-12 07:30N 58°22' W 135°58'4 8.1
2018-Jun-12 07:00N 58°26' W 135°56'2 3.3
2018-Jun-12 06:28N 58°27' W 135°53'0 0.0
2018-Jun-12 05:58N 58°27' W 135°53'0 0.0
2018-Jun-12 05:28N 58°27' W 135°53'0 0.0
2018-Jun-12 04:58N 58°27' W 135°53'0 0.0
2018-Jun-12 04:28N 58°27' W 135°53'0 0.5
2018-Jun-12 04:01N 58°27' W 135°54'4 7.4
2018-Jun-12 03:30N 58°27' W 136°01'5 9.3
2018-Jun-12 03:01N 58°31' W 136°04'510.4
2018-Jun-12 02:30N 58°35' W 136°10'510.0
2018-Jun-12 02:01N 58°39' W 136°16'510.1
2018-Jun-12 01:30N 58°43' W 136°22'4 0.4
2018-Jun-11 17:13N 58°45' W 136°16'210.3
2018-Jun-11 17:00N 58°44' W 136°13'510.4
2018-Jun-11 16:30N 58°40' W 136°07'3 5.9
2018-Jun-11 16:00N 58°38' W 136°02'3 6.3
2018-Jun-11 15:30N 58°35' W 136°03'510.4
2018-Jun-11 15:00N 58°30' W 136°04'5 9.5
2018-Jun-11 14:30N 58°26' W 135°59'3 6.3
2018-Jun-11 14:00N 58°27' W 135°53'0 0.0
2018-Jun-11 13:30N 58°27' W 135°53'0 0.0
2018-Jun-11 13:00N 58°27' W 135°53'0 0.0
2018-Jun-11 12:30N 58°27' W 135°53'0 0.0
2018-Jun-11 12:00N 58°27' W 135°53'0 0.0
2018-Jun-11 11:30N 58°27' W 135°53'0 0.0
2018-Jun-11 11:00N 58°27' W 135°53'0 0.0
2018-Jun-11 10:30N 58°27' W 135°53'0 0.0
2018-Jun-11 10:00N 58°27' W 135°53'0 0.0
2018-Jun-11 09:30N 58°27' W 135°53'0 0.0
2018-Jun-11 09:00N 58°27' W 135°53'2 4.2
2018-Jun-11 08:30N 58°26' W 135°56'5 9.4
2018-Jun-11 08:00N 58°21' W 135°58'4 7.0
2018-Jun-11 07:30N 58°18' W 135°56'1 2.7
2018-Jun-11 07:00N 58°19' W 135°55'3 6.7
2018-Jun-11 06:31N 58°16' W 135°57'3 6.5
2018-Jun-11 06:00N 58°13' W 135°59'2 3.3
2018-Jun-11 05:30N 58°14' W 135°57'2 3.0
2018-Jun-11 05:00N 58°14' W 135°60'611.2
2018-Jun-11 04:30N 58°14' W 136°10'5 0.4
2018-Jun-10 16:04N 58°14' W 136°20'0 0.7
2018-Jun-10 16:00N 58°14' W 136°20'4 8.0
2018-Jun-10 15:29N 58°14' W 136°12'5 9.4
2018-Jun-10 15:00N 58°15' W 136°04'5 9.5
2018-Jun-10 14:30N 58°16' W 135°55'9 8.7
2018-Jun-10 13:29N 58°15' W 135°38'  
2018-Jun-07 07:46N 58°10' W 135°18'4 8.9
2018-Jun-07 07:22N 58°11' W 135°25'4 9.6
2018-Jun-07 06:59N 58°13' W 135°31'5 9.7
2018-Jun-07 06:30N 58°15' W 135°39'5 9.3
2018-Jun-07 06:01N 58°18' W 135°46'0 0.5
2018-Jun-07 05:30N 58°17' W 135°47'2 4.5
2018-Jun-07 05:01N 58°18' W 135°51'4 8.2
2018-Jun-07 04:30N 58°17' W 135°58'5 9.6
2018-Jun-07 03:57N 58°15' W 136°07'4 9.7
2018-Jun-07 03:30N 58°14' W 136°15'3 4.8
2018-Jun-07 02:59N 58°14' W 136°20'0 0.0
2018-Jun-07 02:13N 58°14' W 136°20'0 0.0
2018-Jun-07 01:21N 58°14' W 136°20'0 0.0
2018-Jun-07 01:00N 58°14' W 136°20'0 0.0
2018-Jun-06 23:28N 58°14' W 136°20'1 1.3
2018-Jun-06 22:59N 58°14' W 136°19'4 9.4
2018-Jun-06 22:30N 58°14' W 136°11'510.2
2018-Jun-06 22:01N 58°14' W 136°01'2 3.1
2018-Jun-06 21:26N 58°12' W 135°59'0 0.1
2018-Jun-06 20:59N 58°12' W 135°59'0 0.0
2018-Jun-06 20:31N 58°12' W 135°59'0 0.0
2018-Jun-06 20:00N 58°12' W 135°59'0 0.0
2018-Jun-06 19:30N 58°12' W 135°59'0 0.0
2018-Jun-06 19:00N 58°12' W 135°59'0 0.1
2018-Jun-06 18:30N 58°12' W 135°59'0 0.0
2018-Jun-06 18:00N 58°12' W 135°59'0 0.0
2018-Jun-06 17:29N 58°12' W 135°59'0 0.0
2018-Jun-06 16:59N 58°12' W 135°59'0 0.0
2018-Jun-06 16:30N 58°12' W 135°59'0 0.0
2018-Jun-06 16:00N 58°12' W 135°59'0 0.0
2018-Jun-06 15:30N 58°12' W 135°59'0 0.0
2018-Jun-06 15:00N 58°12' W 135°59'0 0.2
2018-Jun-06 14:30N 58°12' W 135°59'2 4.5
2018-Jun-06 13:59N 58°15' W 135°59'510.2
2018-Jun-06 13:30N 58°17' W 135°51'5 9.6
2018-Jun-06 13:00N 58°18' W 135°41'510.3
2018-Jun-06 12:29N 58°16' W 135°32'  
Track history (hours):
 
Tides and Currents Weather Stations Pressure Air Temp Water Temp Dewpoint Dewpoint Depression Visibility Wind Speed Wind Dir Waves Ship Positions

National Geographic Sea Bird

Owner: Lindblad Expeditions, Inc., SEATTLE, WA. More information available from US FCC via Universal Licensing System and Coast Guard Vessel Documentation Center.

Last reported at 2018-Jun-12 09:45 UTC. Time now 2018-Jun-18 19:12 UTC.
Position N 58°12' W 135°25'.

Length 50 m; draft 2.7 m.

Type: Passenger vessel. MMSI: 366892350.

Date/timePositionNaut miles runAvg speedWind from/ knotsBaromVisibWave heightAir tempDewpointWater temp
2018-Jun-12 09:45N 58°12' W 135°25'3 9.9
2018-Jun-12 09:27N 58°13' W 135°30'4 9.7
2018-Jun-12 09:00N 58°15' W 135°38'5 9.5
2018-Jun-12 08:30N 58°17' W 135°46'5 9.5
2018-Jun-12 08:00N 58°19' W 135°54'4 8.8
2018-Jun-12 07:30N 58°22' W 135°58'4 8.1
2018-Jun-12 07:00N 58°26' W 135°56'2 3.3
2018-Jun-12 06:28N 58°27' W 135°53'0 0.0
2018-Jun-12 05:58N 58°27' W 135°53'0 0.0
2018-Jun-12 05:28N 58°27' W 135°53'0 0.0
2018-Jun-12 04:58N 58°27' W 135°53'0 0.0
2018-Jun-12 04:28N 58°27' W 135°53'0 0.5
2018-Jun-12 04:01N 58°27' W 135°54'4 7.4
2018-Jun-12 03:30N 58°27' W 136°01'5 9.3
2018-Jun-12 03:01N 58°31' W 136°04'510.4
2018-Jun-12 02:30N 58°35' W 136°10'510.0
2018-Jun-12 02:01N 58°39' W 136°16'510.1
2018-Jun-12 01:30N 58°43' W 136°22'4 0.4
2018-Jun-11 17:13N 58°45' W 136°16'210.3
2018-Jun-11 17:00N 58°44' W 136°13'510.4
2018-Jun-11 16:30N 58°40' W 136°07'3 5.9
2018-Jun-11 16:00N 58°38' W 136°02'3 6.3
2018-Jun-11 15:30N 58°35' W 136°03'510.4
2018-Jun-11 15:00N 58°30' W 136°04'5 9.5
2018-Jun-11 14:30N 58°26' W 135°59'3 6.3
2018-Jun-11 14:00N 58°27' W 135°53'0 0.0
2018-Jun-11 13:30N 58°27' W 135°53'0 0.0
2018-Jun-11 13:00N 58°27' W 135°53'0 0.0
2018-Jun-11 12:30N 58°27' W 135°53'0 0.0
2018-Jun-11 12:00N 58°27' W 135°53'0 0.0
2018-Jun-11 11:30N 58°27' W 135°53'0 0.0
2018-Jun-11 11:00N 58°27' W 135°53'0 0.0
2018-Jun-11 10:30N 58°27' W 135°53'0 0.0
2018-Jun-11 10:00N 58°27' W 135°53'0 0.0
2018-Jun-11 09:30N 58°27' W 135°53'0 0.0
2018-Jun-11 09:00N 58°27' W 135°53'2 4.2
2018-Jun-11 08:30N 58°26' W 135°56'5 9.4
2018-Jun-11 08:00N 58°21' W 135°58'4 7.0
2018-Jun-11 07:30N 58°18' W 135°56'1 2.7
2018-Jun-11 07:00N 58°19' W 135°55'3 6.7
2018-Jun-11 06:31N 58°16' W 135°57'3 6.5
2018-Jun-11 06:00N 58°13' W 135°59'2 3.3
2018-Jun-11 05:30N 58°14' W 135°57'2 3.0
2018-Jun-11 05:00N 58°14' W 135°60'611.2
2018-Jun-11 04:30N 58°14' W 136°10'5 0.4
2018-Jun-10 16:04N 58°14' W 136°20'0 0.7
2018-Jun-10 16:00N 58°14' W 136°20'4 8.0
2018-Jun-10 15:29N 58°14' W 136°12'5 9.4
2018-Jun-10 15:00N 58°15' W 136°04'5 9.5
2018-Jun-10 14:30N 58°16' W 135°55'9 8.7
2018-Jun-10 13:29N 58°15' W 135°38'  
2018-Jun-07 07:46N 58°10' W 135°18'4 8.9
2018-Jun-07 07:22N 58°11' W 135°25'4 9.6
2018-Jun-07 06:59N 58°13' W 135°31'5 9.7
2018-Jun-07 06:30N 58°15' W 135°39'5 9.3
2018-Jun-07 06:01N 58°18' W 135°46'0 0.5
2018-Jun-07 05:30N 58°17' W 135°47'2 4.5
2018-Jun-07 05:01N 58°18' W 135°51'4 8.2
2018-Jun-07 04:30N 58°17' W 135°58'5 9.6
2018-Jun-07 03:57N 58°15' W 136°07'4 9.7
2018-Jun-07 03:30N 58°14' W 136°15'3 4.8
2018-Jun-07 02:59N 58°14' W 136°20'0 0.0
2018-Jun-07 02:13N 58°14' W 136°20'0 0.0
2018-Jun-07 01:21N 58°14' W 136°20'0 0.0
2018-Jun-07 01:00N 58°14' W 136°20'0 0.0
2018-Jun-06 23:28N 58°14' W 136°20'1 1.3
2018-Jun-06 22:59N 58°14' W 136°19'4 9.4
2018-Jun-06 22:30N 58°14' W 136°11'510.2
2018-Jun-06 22:01N 58°14' W 136°01'2 3.1
2018-Jun-06 21:26N 58°12' W 135°59'0 0.1
2018-Jun-06 20:59N 58°12' W 135°59'0 0.0
2018-Jun-06 20:31N 58°12' W 135°59'0 0.0
2018-Jun-06 20:00N 58°12' W 135°59'0 0.0
2018-Jun-06 19:30N 58°12' W 135°59'0 0.0
2018-Jun-06 19:00N 58°12' W 135°59'0 0.1
2018-Jun-06 18:30N 58°12' W 135°59'0 0.0
2018-Jun-06 18:00N 58°12' W 135°59'0 0.0
2018-Jun-06 17:29N 58°12' W 135°59'0 0.0
2018-Jun-06 16:59N 58°12' W 135°59'0 0.0
2018-Jun-06 16:30N 58°12' W 135°59'0 0.0
2018-Jun-06 16:00N 58°12' W 135°59'0 0.0
2018-Jun-06 15:30N 58°12' W 135°59'0 0.0
2018-Jun-06 15:00N 58°12' W 135°59'0 0.2
2018-Jun-06 14:30N 58°12' W 135°59'2 4.5
2018-Jun-06 13:59N 58°15' W 135°59'510.2
2018-Jun-06 13:30N 58°17' W 135°51'5 9.6
2018-Jun-06 13:00N 58°18' W 135°41'510.3
2018-Jun-06 12:29N 58°16' W 135°32'  

Dump ship's entire track history